createdAt,value
2022-08-26T00:00:11.979Z,5.60
2022-08-26T00:02:43.170Z,6.32
2022-08-26T00:05:10.622Z,5.88
2022-08-26T00:07:38.012Z,6.55
2022-08-26T00:10:06.376Z,6.18
2022-08-26T00:12:35.955Z,5.75
2022-08-26T00:15:11.653Z,6.43
2022-08-26T00:17:40.182Z,6.05
2022-08-26T00:20:14.020Z,5.47
2022-08-26T00:22:41.696Z,5.47
2022-08-26T00:25:10.416Z,5.05
2022-08-26T00:27:39.626Z,5.53
2022-08-26T00:30:13.670Z,5.82
2022-08-26T00:32:46.269Z,5.18
2022-08-26T00:35:13.902Z,6.82
2022-08-26T00:37:42.431Z,7.10
2022-08-26T00:40:16.812Z,6.43
2022-08-26T00:42:47.365Z,6.13
2022-08-26T00:45:16.750Z,6.63
2022-08-26T00:47:52.367Z,5.70
2022-08-26T00:50:26.762Z,6.10
2022-08-26T00:52:56.023Z,6.32
2022-08-26T00:55:34.665Z,5.68
2022-08-26T00:58:06.730Z,4.95
2022-08-26T01:00:34.227Z,6.05
2022-08-26T01:03:03.468Z,5.95
2022-08-26T01:05:32.559Z,5.55
2022-08-26T01:08:00.103Z,5.28
2022-08-26T01:10:31.671Z,6.07
2022-08-26T01:13:02.913Z,5.95
2022-08-26T01:15:36.935Z,4.95
2022-08-26T01:18:06.076Z,5.93
2022-08-26T01:21:11.400Z,6.95
2022-08-26T01:23:46.737Z,6.60
2022-08-26T01:26:41.260Z,6.82
2022-08-26T01:29:17.809Z,6.43
2022-08-26T01:31:57.836Z,6.45
2022-08-26T01:34:34.990Z,7.35
2022-08-26T01:37:07.439Z,6.93
2022-08-26T01:39:38.112Z,6.25
2022-08-26T01:42:13.135Z,6.18
2022-08-26T01:44:52.084Z,5.18
2022-08-26T01:47:26.089Z,6.53
2022-08-26T01:49:56.387Z,6.90
2022-08-26T01:52:30.124Z,7.10
2022-08-26T01:54:59.508Z,5.85
2022-08-26T01:57:28.740Z,5.90
2022-08-26T02:00:01.476Z,5.53
2022-08-26T02:02:29.207Z,7.07
2022-08-26T02:05:01.556Z,5.80
2022-08-26T02:07:30.333Z,6.68
2022-08-26T02:10:00.670Z,6.80
2022-08-26T02:12:28.321Z,6.53
2022-08-26T02:15:00.892Z,6.53
2022-08-26T02:17:40.821Z,5.80
2022-08-26T02:20:14.815Z,5.63
2022-08-26T02:22:45.130Z,5.93
2022-08-26T02:25:18.585Z,5.45
2022-08-26T02:30:21.156Z,5.38
2022-08-26T02:32:52.894Z,5.60
2022-08-26T02:35:26.004Z,5.20
2022-08-26T02:37:53.776Z,6.15
2022-08-26T02:40:26.490Z,5.40
2022-08-26T02:43:05.829Z,5.07
2022-08-26T02:45:43.109Z,5.03
2022-08-26T02:48:15.194Z,5.45
2022-08-26T02:50:43.722Z,6.00
2022-08-26T02:53:15.398Z,6.20
2022-08-26T02:55:44.174Z,6.75
2022-08-26T02:58:12.575Z,5.65
2022-08-26T03:00:53.487Z,5.43
2022-08-26T03:03:23.573Z,5.85
2022-08-26T03:05:53.074Z,6.18
2022-08-26T03:08:22.183Z,5.78
2022-08-26T03:10:49.654Z,5.80
2022-08-26T03:13:17.272Z,6.40
2022-08-26T03:15:45.924Z,6.05
2022-08-26T03:18:16.011Z,5.22
2022-08-26T03:20:43.998Z,9.05
2022-08-26T03:23:12.438Z,6.03
2022-08-26T03:25:42.429Z,6.68
2022-08-26T03:28:12.377Z,5.60
2022-08-26T03:30:45.511Z,6.45
2022-08-26T03:33:13.912Z,7.13
2022-08-26T03:35:44.452Z,6.45
2022-08-26T03:38:11.995Z,5.20
2022-08-26T03:40:40.227Z,6.60
2022-08-26T03:43:12.552Z,6.15
2022-08-26T03:45:40.958Z,5.88
2022-08-26T03:48:11.403Z,6.50
2022-08-26T03:50:39.586Z,6.05
2022-08-26T03:53:13.143Z,7.50
2022-08-26T03:55:43.946Z,5.78
2022-08-26T03:58:15.628Z,6.93
2022-08-26T04:00:45.276Z,6.60
2022-08-26T04:03:33.748Z,6.55
2022-08-26T04:06:01.434Z,6.72
2022-08-26T04:08:28.705Z,6.90
2022-08-26T04:10:56.070Z,8.82
2022-08-26T04:13:27.548Z,7.03
2022-08-26T04:15:54.940Z,6.55
2022-08-26T04:18:31.449Z,7.97
2022-08-26T04:21:08.531Z,6.70
2022-08-26T04:23:47.637Z,7.00
2022-08-26T04:26:16.804Z,8.23
2022-08-26T04:28:44.176Z,5.78
2022-08-26T04:31:17.435Z,6.95
2022-08-26T04:33:49.656Z,6.70
2022-08-26T04:36:20.255Z,8.30
2022-08-26T04:38:47.995Z,6.55
2022-08-26T04:41:17.000Z,6.60
2022-08-26T04:43:45.525Z,6.78
2022-08-26T04:46:20.005Z,8.02
2022-08-26T04:48:50.966Z,8.38
2022-08-26T04:51:21.243Z,11.40
2022-08-26T04:53:49.199Z,6.90
2022-08-26T04:56:23.164Z,7.75
2022-08-26T04:58:51.669Z,9.13
2022-08-26T05:01:20.573Z,6.82
2022-08-26T05:03:49.005Z,6.53
2022-08-26T05:06:19.097Z,8.80
2022-08-26T05:08:47.192Z,8.45
2022-08-26T05:11:14.569Z,7.28
2022-08-26T05:13:44.191Z,7.38
2022-08-26T05:16:14.001Z,6.97
2022-08-26T05:18:43.511Z,6.78
2022-08-26T05:21:33.010Z,7.57
2022-08-26T05:24:01.997Z,7.70
2022-08-26T05:26:31.233Z,7.07
2022-08-26T05:28:58.648Z,8.75
2022-08-26T05:31:31.210Z,6.65
2022-08-26T05:33:59.331Z,10.05
2022-08-26T05:36:29.551Z,7.13
2022-08-26T05:38:58.153Z,6.90
2022-08-26T05:41:34.410Z,8.13
2022-08-26T05:44:09.325Z,7.25
2022-08-26T05:46:41.348Z,6.97
2022-08-26T05:49:18.650Z,9.03
2022-08-26T05:51:49.067Z,7.22
2022-08-26T05:54:21.309Z,8.05
2022-08-26T05:56:52.854Z,7.07
2022-08-26T05:59:24.100Z,7.38
2022-08-26T06:01:54.558Z,6.87
2022-08-26T06:04:28.253Z,7.47
2022-08-26T06:07:09.937Z,7.95
2022-08-26T06:09:39.255Z,5.95
2022-08-26T06:12:06.891Z,8.38
2022-08-26T06:14:35.687Z,6.65
2022-08-26T06:17:03.142Z,7.10
2022-08-26T06:19:33.047Z,7.10
2022-08-26T06:22:22.540Z,7.10
2022-08-26T06:25:10.108Z,6.75
2022-08-26T06:27:39.973Z,6.40
2022-08-26T06:30:09.691Z,6.38
2022-08-26T06:32:37.108Z,6.15
2022-08-26T06:35:07.215Z,7.38
2022-08-26T06:37:41.166Z,6.97
2022-08-26T06:40:09.339Z,6.22
2022-08-26T06:42:38.948Z,6.22
2022-08-26T06:45:07.377Z,7.30
2022-08-26T06:47:37.153Z,6.95
2022-08-26T06:50:04.769Z,7.97
2022-08-26T06:52:34.274Z,6.40
2022-08-26T06:55:02.478Z,6.57
2022-08-26T06:57:32.809Z,9.80
2022-08-26T07:00:05.550Z,6.13
2022-08-26T07:02:34.875Z,7.15
2022-08-26T07:05:02.412Z,6.60
2022-08-26T07:07:30.559Z,6.43
2022-08-26T07:09:57.986Z,7.30
2022-08-26T07:12:27.905Z,6.40
2022-08-26T07:14:55.676Z,6.72
2022-08-26T07:17:25.174Z,6.53
2022-08-26T07:19:55.591Z,6.30
2022-08-26T07:22:25.113Z,7.10
2022-08-26T07:24:52.643Z,6.22
2022-08-26T07:27:19.948Z,5.65
2022-08-26T07:29:48.466Z,6.53
2022-08-26T07:32:18.933Z,6.43
2022-08-26T07:34:48.789Z,6.97
2022-08-26T07:37:16.680Z,7.53
2022-08-26T07:39:45.153Z,6.00
2022-08-26T07:42:18.388Z,6.53
2022-08-26T07:47:25.635Z,7.15
2022-08-26T07:49:57.738Z,6.45
2022-08-26T07:52:30.081Z,6.47
2022-08-26T07:54:58.901Z,6.30
2022-08-26T07:57:27.557Z,6.47
2022-08-26T07:59:58.759Z,6.30
2022-08-26T08:02:28.449Z,6.95
2022-08-26T08:04:58.260Z,8.15
2022-08-26T08:07:44.722Z,7.47
2022-08-26T08:10:18.990Z,9.80
2022-08-26T08:12:49.721Z,5.82
2022-08-26T08:15:24.905Z,7.15
2022-08-26T08:17:53.066Z,8.20
2022-08-26T08:20:23.017Z,6.65
2022-08-26T08:22:51.478Z,6.10
2022-08-26T08:25:19.479Z,6.50
2022-08-26T08:27:50.331Z,8.70
2022-08-26T08:30:23.049Z,7.40
2022-08-26T08:35:22.364Z,7.72
2022-08-26T08:37:54.844Z,6.75
2022-08-26T08:40:25.410Z,7.35
2022-08-26T08:43:09.865Z,7.45
2022-08-26T08:45:42.992Z,6.10
2022-08-26T08:48:33.344Z,6.57
2022-08-26T08:51:09.526Z,5.90
2022-08-26T08:53:44.364Z,5.70
2022-08-26T08:56:34.682Z,8.68
2022-08-26T08:59:25.261Z,6.43
2022-08-26T09:01:57.945Z,9.25
2022-08-26T09:04:44.797Z,6.50
2022-08-26T09:07:18.584Z,6.70
2022-08-26T09:09:55.341Z,7.43
2022-08-26T09:12:31.802Z,6.22
2022-08-26T09:15:06.028Z,8.85
2022-08-26T09:17:47.376Z,6.90
2022-08-26T09:20:35.807Z,7.05
2022-08-26T09:23:06.352Z,5.47
2022-08-26T09:28:28.564Z,6.60
2022-08-26T09:31:11.762Z,5.10
2022-08-26T09:33:40.199Z,8.38
2022-08-26T09:36:22.586Z,5.88
2022-08-26T09:38:53.930Z,5.93
2022-08-26T09:41:31.544Z,5.93
2022-08-26T09:44:07.926Z,6.22
2022-08-26T09:49:27.091Z,6.40
2022-08-26T09:52:14.703Z,5.57
2022-08-26T09:54:46.058Z,5.03
2022-08-26T09:57:26.376Z,5.30
2022-08-26T09:59:54.196Z,6.00
2022-08-26T10:02:36.348Z,6.70
2022-08-26T10:05:11.165Z,4.88
2022-08-26T10:07:43.094Z,5.88
2022-08-26T10:10:22.152Z,5.32
2022-08-26T10:12:59.297Z,4.97
2022-08-26T10:15:40.454Z,5.65
2022-08-26T10:18:48.222Z,5.40
2022-08-26T10:22:07.334Z,4.78
2022-08-26T10:24:51.963Z,6.68
2022-08-26T10:27:33.996Z,4.50
2022-08-26T10:30:13.437Z,5.13
2022-08-26T10:32:47.784Z,4.60
2022-08-26T10:35:17.830Z,5.40
2022-08-26T10:38:11.310Z,5.15
2022-08-26T10:40:55.078Z,5.38
2022-08-26T10:43:49.356Z,4.88
2022-08-26T10:46:27.045Z,4.80
2022-08-26T10:49:25.155Z,4.72
2022-08-26T10:52:00.309Z,4.25
2022-08-26T10:54:37.266Z,5.10
2022-08-26T10:57:43.392Z,4.82
2022-08-26T11:00:41.660Z,4.50
2022-08-26T11:03:35.040Z,6.20
2022-08-26T11:06:21.836Z,4.75
2022-08-26T11:08:52.982Z,5.13
2022-08-26T11:11:47.938Z,3.92
2022-08-26T11:14:29.062Z,4.15
2022-08-26T11:19:58.900Z,5.20
2022-08-26T11:22:36.321Z,4.50
2022-08-26T11:25:15.635Z,5.13
2022-08-26T11:27:46.322Z,5.82
2022-08-26T11:30:18.457Z,4.80
2022-08-26T11:32:59.024Z,4.78
2022-08-26T11:35:27.265Z,4.38
2022-08-26T11:37:58.362Z,4.57
2022-08-26T11:40:35.302Z,4.65
2022-08-26T11:43:06.157Z,5.70
2022-08-26T11:45:38.010Z,5.10
2022-08-26T11:48:18.790Z,5.07
2022-08-26T11:51:05.671Z,5.50
2022-08-26T11:53:38.444Z,4.80
2022-08-26T11:56:10.417Z,6.00
2022-08-26T11:58:44.268Z,4.30
2022-08-26T12:01:31.291Z,4.70
2022-08-26T12:04:05.768Z,4.57
2022-08-26T12:06:43.377Z,4.82
2022-08-26T12:09:29.273Z,4.72
2022-08-26T12:12:14.429Z,4.05
2022-08-26T12:14:42.864Z,4.97
2022-08-26T12:17:28.475Z,4.47
2022-08-26T12:19:59.226Z,4.95
2022-08-26T12:22:33.251Z,4.63
2022-08-26T12:25:07.374Z,5.35
2022-08-26T12:27:40.195Z,4.97
2022-08-26T12:30:12.328Z,5.22
2022-08-26T12:32:57.642Z,6.95
2022-08-26T12:35:28.691Z,7.10
2022-08-26T12:38:00.849Z,6.53
2022-08-26T12:40:31.258Z,4.80
2022-08-26T12:43:03.239Z,4.80
2022-08-26T12:45:37.160Z,7.97
2022-08-26T12:48:24.589Z,5.65
2022-08-26T12:50:58.263Z,7.35
2022-08-26T12:53:31.927Z,6.28
2022-08-26T12:56:20.591Z,7.20
2022-08-26T12:59:10.315Z,10.73
2022-08-26T13:01:43.587Z,7.88
2022-08-26T13:04:41.917Z,8.07
2022-08-26T13:07:27.739Z,6.68
2022-08-26T13:09:57.493Z,8.18
2022-08-26T13:12:26.784Z,9.63
2022-08-26T13:14:56.546Z,7.07
2022-08-26T13:17:23.777Z,7.72
2022-08-26T13:19:54.178Z,8.30
2022-08-26T13:22:26.812Z,8.02
2022-08-26T13:24:56.524Z,8.40
2022-08-26T13:27:26.202Z,8.52
2022-08-26T13:29:57.760Z,9.43
2022-08-26T13:32:29.034Z,10.88
2022-08-26T13:35:05.555Z,9.40
2022-08-26T13:37:36.575Z,9.63
2022-08-26T13:40:09.296Z,6.53
2022-08-26T13:42:36.810Z,11.45
2022-08-26T13:45:17.104Z,7.28
2022-08-26T13:47:44.602Z,8.77
2022-08-26T13:50:19.724Z,7.40
2022-08-26T13:52:50.291Z,7.22
2022-08-26T13:55:17.616Z,7.47
2022-08-26T13:57:45.077Z,8.80
2022-08-26T14:00:13.082Z,7.28
2022-08-26T14:02:53.540Z,8.38
2022-08-26T14:05:21.798Z,10.93
2022-08-26T14:07:49.190Z,9.05
2022-08-26T14:10:20.719Z,8.65
2022-08-26T14:12:49.492Z,12.23
2022-08-26T14:15:18.477Z,8.43
2022-08-26T14:17:48.370Z,8.30
2022-08-26T14:20:27.119Z,11.02
2022-08-26T14:23:13.313Z,10.10
2022-08-26T14:25:42.411Z,8.90
2022-08-26T14:28:09.685Z,8.60
2022-08-26T14:30:41.600Z,6.57
2022-08-26T14:33:14.330Z,10.38
2022-08-26T14:35:47.375Z,8.70
2022-08-26T14:38:21.527Z,10.10
2022-08-26T14:40:48.922Z,10.70
2022-08-26T14:43:16.474Z,9.45
2022-08-26T14:45:50.347Z,8.15
2022-08-26T14:48:17.517Z,10.20
2022-08-26T14:54:04.032Z,9.18
2022-08-26T14:56:38.235Z,9.90
2022-08-26T14:59:07.390Z,9.80
2022-08-26T15:01:35.016Z,7.90
2022-08-26T15:04:02.740Z,8.18
2022-08-26T15:06:34.925Z,9.80
2022-08-26T15:09:04.889Z,9.93
2022-08-26T15:11:34.550Z,12.75
2022-08-26T15:14:04.481Z,8.98
2022-08-26T15:16:33.372Z,10.27
2022-08-26T15:19:06.597Z,7.82
2022-08-26T15:21:38.845Z,8.15
2022-08-26T15:24:06.433Z,9.98
2022-08-26T15:26:34.798Z,10.13
2022-08-26T15:29:04.978Z,10.95
2022-08-26T15:31:33.811Z,9.40
2022-08-26T15:34:07.431Z,8.15
2022-08-26T15:36:37.665Z,8.77
2022-08-26T15:39:11.556Z,7.13
2022-08-26T15:41:39.556Z,8.57
2022-08-26T15:44:08.013Z,9.02
2022-08-26T15:46:36.391Z,8.15
2022-08-26T15:49:05.059Z,8.05
2022-08-26T15:51:45.437Z,11.27
2022-08-26T15:54:16.576Z,8.20
2022-08-26T15:56:45.493Z,8.00
2022-08-26T15:59:15.321Z,7.57
2022-08-26T16:02:18.206Z,12.68
2022-08-26T16:04:45.413Z,8.50
2022-08-26T16:07:13.002Z,9.82
2022-08-26T16:09:44.929Z,8.40
2022-08-26T16:14:41.278Z,6.10
2022-08-26T16:17:08.741Z,7.70
2022-08-26T16:19:37.320Z,5.65
2022-08-26T16:22:09.095Z,7.72
2022-08-26T16:24:36.954Z,7.13
2022-08-26T16:27:04.538Z,6.78
2022-08-26T16:29:32.518Z,6.53
2022-08-26T16:32:00.076Z,5.80
2022-08-26T16:34:32.041Z,7.13
2022-08-26T16:37:00.487Z,7.78
2022-08-26T16:39:27.812Z,6.30
2022-08-26T16:41:55.337Z,7.63
2022-08-26T16:44:24.185Z,7.20
2022-08-26T16:46:58.805Z,6.47
2022-08-26T16:49:32.634Z,6.22
2022-08-26T16:52:02.615Z,6.25
2022-08-26T16:54:30.861Z,7.18
2022-08-26T16:57:02.702Z,7.18
2022-08-26T16:59:36.567Z,8.13
2022-08-26T17:02:07.010Z,9.35
2022-08-26T17:04:34.629Z,7.60
2022-08-26T17:07:01.795Z,6.50
2022-08-26T17:09:31.399Z,7.07
2022-08-26T17:12:01.555Z,5.90
2022-08-26T17:14:29.370Z,7.65
2022-08-26T17:16:57.811Z,5.47
2022-08-26T17:19:25.374Z,5.60
2022-08-26T17:21:54.750Z,4.15
2022-08-26T17:24:25.434Z,4.47
2022-08-26T17:26:53.450Z,3.33
2022-08-26T17:29:27.882Z,4.65
2022-08-26T17:31:57.249Z,3.92
2022-08-26T17:34:25.176Z,3.47
2022-08-26T17:36:52.310Z,3.25
2022-08-26T17:39:34.615Z,3.45
2022-08-26T17:42:02.051Z,3.20
2022-08-26T17:44:29.517Z,4.72
2022-08-26T17:46:57.746Z,6.28
2022-08-26T17:49:33.738Z,4.20
2022-08-26T17:52:02.506Z,5.45
2022-08-26T17:54:34.666Z,6.20
2022-08-26T17:57:01.965Z,3.95
2022-08-26T17:59:32.889Z,5.93
2022-08-26T18:02:00.431Z,5.03
2022-08-26T18:04:30.110Z,5.10
2022-08-26T18:06:57.361Z,7.15
2022-08-26T18:09:24.863Z,4.47
2022-08-26T18:11:52.116Z,5.85
2022-08-26T18:14:19.701Z,5.43
2022-08-26T18:16:52.269Z,6.47
2022-08-26T18:19:19.758Z,6.13
2022-08-26T18:21:47.223Z,6.63
2022-08-26T18:24:19.690Z,6.22
2022-08-26T18:26:51.002Z,6.88
2022-08-26T18:29:19.607Z,5.78
2022-08-26T18:31:48.373Z,6.15
2022-08-26T18:34:16.893Z,5.68
2022-08-26T18:36:44.145Z,5.97
2022-08-26T18:39:12.936Z,5.55
2022-08-26T18:41:53.028Z,7.20
2022-08-26T18:44:23.952Z,6.50
2022-08-26T18:46:54.037Z,6.82
2022-08-26T18:49:21.265Z,6.15
2022-08-26T18:51:54.251Z,6.50
2022-08-26T18:54:21.894Z,5.95
2022-08-26T18:56:52.608Z,5.03
2022-08-26T18:59:20.053Z,6.35
2022-08-26T19:01:57.539Z,6.13
2022-08-26T19:04:25.006Z,6.15
2022-08-26T19:06:52.910Z,6.25
2022-08-26T19:09:22.719Z,7.47
2022-08-26T19:11:52.464Z,5.15
2022-08-26T19:14:22.340Z,7.05
2022-08-26T19:16:52.268Z,6.68
2022-08-26T19:19:23.739Z,5.93
2022-08-26T19:21:51.837Z,4.95
2022-08-26T19:24:21.910Z,5.50
2022-08-26T19:26:57.894Z,6.32
2022-08-26T19:29:31.541Z,6.50
2022-08-26T19:31:59.265Z,6.93
2022-08-26T19:34:26.760Z,6.22
2022-08-26T19:36:56.942Z,6.38
2022-08-26T19:39:26.348Z,6.18
2022-08-26T19:41:53.900Z,5.40
2022-08-26T19:44:41.048Z,6.93
2022-08-26T19:47:09.642Z,8.25
2022-08-26T19:49:38.603Z,5.30
2022-08-26T19:52:11.416Z,7.60
2022-08-26T19:54:39.611Z,7.25
2022-08-26T19:57:09.423Z,7.28
2022-08-26T19:59:41.802Z,6.10
2022-08-26T20:02:11.005Z,6.90
2022-08-26T20:04:40.238Z,8.18
2022-08-26T20:07:08.599Z,5.78
2022-08-26T20:09:37.074Z,5.25
2022-08-26T20:12:05.980Z,6.63
2022-08-26T20:14:35.178Z,6.45
2022-08-26T20:17:03.827Z,5.65
2022-08-26T20:19:52.764Z,6.75
2022-08-26T20:22:20.369Z,5.82
2022-08-26T20:24:49.851Z,6.13
2022-08-26T20:27:19.718Z,7.00
2022-08-26T20:29:49.257Z,6.20
2022-08-26T20:32:18.779Z,6.47
2022-08-26T20:34:45.999Z,6.03
2022-08-26T20:37:16.652Z,6.43
2022-08-26T20:39:49.103Z,6.97
2022-08-26T20:42:20.573Z,8.32
2022-08-26T20:44:55.033Z,6.60
2022-08-26T20:47:24.525Z,6.53
2022-08-26T20:49:53.151Z,6.22
2022-08-26T20:52:24.996Z,6.70
2022-08-26T20:54:52.744Z,6.20
2022-08-26T20:57:22.168Z,6.05
2022-08-26T20:59:51.893Z,5.55
2022-08-26T21:02:21.566Z,6.72
2022-08-26T21:04:49.056Z,8.13
2022-08-26T21:07:16.282Z,6.68
2022-08-26T21:09:45.160Z,7.22
2022-08-26T21:12:12.844Z,7.35
2022-08-26T21:14:40.222Z,6.85
2022-08-26T21:17:12.579Z,6.50
2022-08-26T21:19:42.346Z,7.20
2022-08-26T21:22:12.311Z,6.60
2022-08-26T21:24:39.876Z,7.60
2022-08-26T21:27:07.285Z,6.65
2022-08-26T21:29:36.308Z,8.15
2022-08-26T21:32:04.772Z,7.20
2022-08-26T21:34:32.046Z,6.88
2022-08-26T21:36:59.332Z,7.70
2022-08-26T21:39:26.630Z,6.72
2022-08-26T21:41:54.009Z,7.53
2022-08-26T21:44:23.908Z,6.22
2022-08-26T21:46:51.015Z,7.85
2022-08-26T21:49:18.297Z,6.95
2022-08-26T21:51:47.457Z,6.65
2022-08-26T21:54:15.793Z,6.57
2022-08-26T21:56:46.756Z,8.90
2022-08-26T21:59:19.919Z,8.40
2022-08-26T22:01:47.680Z,6.75
2022-08-26T22:04:14.975Z,7.75
2022-08-26T22:06:45.699Z,8.88
2022-08-26T22:09:15.143Z,8.73
2022-08-26T22:11:43.252Z,7.38
2022-08-26T22:14:11.703Z,7.05
2022-08-26T22:16:41.594Z,7.97
2022-08-26T22:19:19.921Z,5.97
2022-08-26T22:21:50.078Z,8.40
2022-08-26T22:24:20.034Z,8.45
2022-08-26T22:26:48.362Z,9.10
2022-08-26T22:29:16.776Z,9.23
2022-08-26T22:31:44.267Z,7.68
2022-08-26T22:34:17.270Z,8.43
2022-08-26T22:39:21.047Z,6.63
2022-08-26T22:41:52.141Z,7.90
2022-08-26T22:44:21.492Z,8.93
2022-08-26T22:46:50.977Z,6.90
2022-08-26T22:49:18.394Z,7.32
2022-08-26T22:51:46.879Z,8.77
2022-08-26T22:54:19.260Z,7.85
2022-08-26T22:56:46.504Z,7.10
2022-08-26T22:59:17.985Z,7.32
2022-08-26T23:01:46.801Z,9.68
2022-08-26T23:04:13.992Z,7.85
2022-08-26T23:06:47.666Z,7.57
2022-08-26T23:09:19.187Z,7.03
2022-08-26T23:11:48.392Z,9.02
2022-08-26T23:14:17.463Z,8.88
2022-08-26T23:16:47.873Z,7.60
2022-08-26T23:19:17.531Z,9.15
2022-08-26T23:21:49.354Z,8.05
2022-08-26T23:24:19.211Z,7.95
2022-08-26T23:26:46.818Z,7.25
2022-08-26T23:29:15.843Z,8.57
2022-08-26T23:31:43.959Z,9.07
2022-08-26T23:34:30.594Z,9.07
2022-08-26T23:37:01.251Z,10.27
2022-08-26T23:39:31.361Z,12.20
2022-08-26T23:42:01.566Z,11.40
2022-08-26T23:44:32.912Z,10.25
2022-08-26T23:47:00.813Z,12.38
2022-08-26T23:49:32.487Z,11.13
2022-08-26T23:52:19.062Z,12.98
2022-08-26T23:54:48.676Z,24.92
2022-08-26T23:57:17.650Z,15.65
2022-08-26T23:59:48.646Z,14.73
